createdAt,value
2024-03-12T05:35:18.744Z,100.00
2024-03-12T05:38:37.699Z,100.00
2024-03-12T05:42:11.929Z,100.00
2024-03-12T05:45:43.471Z,100.00
2024-03-12T05:48:58.036Z,100.00
2024-03-12T05:52:13.823Z,100.00
2024-03-12T05:55:28.131Z,100.00
2024-03-12T05:58:43.024Z,100.00
2024-03-12T06:02:00.832Z,100.00
2024-03-12T06:05:15.822Z,100.00
2024-03-12T06:08:31.835Z,100.00
2024-03-12T06:11:49.094Z,100.00
2024-03-12T06:15:07.853Z,100.00
2024-03-12T06:18:26.994Z,100.00
2024-03-12T06:21:41.515Z,100.00
2024-03-12T06:25:11.834Z,100.00
2024-03-12T06:28:29.098Z,100.00
2024-03-12T06:31:43.520Z,100.00
2024-03-12T06:34:58.037Z,100.00
2024-03-12T06:38:12.251Z,100.00
2024-03-12T06:41:28.128Z,100.00
2024-03-12T06:44:44.407Z,100.00
2024-03-12T06:48:01.785Z,100.00
2024-03-12T06:51:38.198Z,100.00
2024-03-12T06:54:54.070Z,100.00
2024-03-12T06:58:15.491Z,100.00
2024-03-12T07:01:42.934Z,100.00
2024-03-12T07:05:08.360Z,100.00
2024-03-12T07:08:29.609Z,100.00
2024-03-12T07:12:11.687Z,100.00
2024-03-12T07:15:43.057Z,100.00
2024-03-12T07:19:25.887Z,96.67
2024-03-12T07:22:53.306Z,100.00
2024-03-12T07:26:10.090Z,100.00
2024-03-12T07:29:30.280Z,100.00
2024-03-12T07:32:49.540Z,100.00
2024-03-12T07:36:24.369Z,100.00
2024-03-12T07:39:48.758Z,97.54
2024-03-12T07:43:19.886Z,97.56
2024-03-12T07:47:10.526Z,96.20
2024-03-12T07:50:34.772Z,100.00
2024-03-12T07:53:56.678Z,100.00
2024-03-12T07:57:27.028Z,100.00
2024-03-12T08:00:52.708Z,100.00
2024-03-12T08:04:32.176Z,100.00
2024-03-12T08:07:59.652Z,100.00
2024-03-12T08:11:20.556Z,100.00
2024-03-12T08:14:43.989Z,100.00
2024-03-12T08:18:20.550Z,100.00
2024-03-12T08:21:43.792Z,100.00
2024-03-12T08:25:03.621Z,100.00
2024-03-12T08:28:23.354Z,100.00
2024-03-12T08:31:47.642Z,100.00
2024-03-12T08:35:40.399Z,100.00
2024-03-12T08:38:55.624Z,100.00
2024-03-12T08:42:47.570Z,100.00
2024-03-12T08:46:14.036Z,100.00
2024-03-12T08:49:40.472Z,95.42
2024-03-12T08:53:02.039Z,91.02
2024-03-12T08:56:21.690Z,76.30
2024-03-12T08:59:59.786Z,71.93
2024-03-12T09:03:32.615Z,78.91
2024-03-12T09:07:01.749Z,75.98
2024-03-12T09:10:24.264Z,80.38
2024-03-12T09:13:43.866Z,80.50
2024-03-12T09:17:11.887Z,77.78
2024-03-12T09:20:29.349Z,85.16
2024-03-12T09:27:26.639Z,82.20
2024-03-12T09:30:51.601Z,81.28
2024-03-12T09:34:11.020Z,85.65
2024-03-12T09:37:59.660Z,83.34
2024-03-12T09:41:37.187Z,81.34
2024-03-12T09:45:19.483Z,76.84
2024-03-12T09:48:38.308Z,75.39
2024-03-12T09:51:53.892Z,78.51
2024-03-12T09:55:12.196Z,80.71
2024-03-12T09:58:26.637Z,80.05
2024-03-12T10:01:40.773Z,80.53
2024-03-12T10:04:58.376Z,81.47
2024-03-12T10:08:31.002Z,82.59
2024-03-12T10:11:46.794Z,81.67
2024-03-12T10:15:07.208Z,82.53
2024-03-12T10:18:41.382Z,83.54
2024-03-12T10:22:09.387Z,85.08
2024-03-12T10:25:31.427Z,82.10
2024-03-12T10:28:54.517Z,81.71
2024-03-12T10:32:20.000Z,80.99
2024-03-12T10:35:48.595Z,80.29
2024-03-12T10:39:09.333Z,79.47
2024-03-12T10:42:41.452Z,79.77
2024-03-12T10:46:17.643Z,80.81
2024-03-12T10:49:45.162Z,81.85
2024-03-12T10:53:03.319Z,83.11
2024-03-12T11:04:25.836Z,82.11
2024-03-12T11:07:46.958Z,78.33
2024-03-12T11:11:08.368Z,77.75
2024-03-12T11:14:34.699Z,77.79
2024-03-12T11:17:53.316Z,76.62
2024-03-12T11:21:13.263Z,76.89
2024-03-12T11:24:30.492Z,79.77
2024-03-12T11:28:32.865Z,79.96
2024-03-12T11:31:52.861Z,79.78
2024-03-12T11:35:18.659Z,84.09
2024-03-12T11:38:36.853Z,84.38
2024-03-12T11:42:36.028Z,85.17
2024-03-12T11:45:56.033Z,82.22
2024-03-12T11:49:36.278Z,82.91
2024-03-12T11:52:56.866Z,84.06
2024-03-12T11:56:53.078Z,83.23
2024-03-12T12:00:13.515Z,83.06
2024-03-12T12:03:40.822Z,83.46
2024-03-12T12:07:05.594Z,83.04
2024-03-12T12:11:09.234Z,82.49
2024-03-12T12:14:28.111Z,86.74
2024-03-12T12:17:49.592Z,91.02
2024-03-12T12:21:26.715Z,93.51
2024-03-12T12:24:44.762Z,96.89
2024-03-12T12:28:10.252Z,95.94
2024-03-12T12:31:30.248Z,95.56
2024-03-12T12:35:07.353Z,96.98
2024-03-12T12:39:02.749Z,97.88
2024-03-12T12:46:19.054Z,96.70
2024-03-12T12:49:52.763Z,98.14
2024-03-12T12:53:22.154Z,98.47
2024-03-12T12:56:58.274Z,100.00
2024-03-12T13:00:45.868Z,100.00
2024-03-12T13:04:13.043Z,100.00
2024-03-12T13:07:39.078Z,100.00
2024-03-12T13:11:19.819Z,100.00
2024-03-12T13:14:39.972Z,100.00
2024-03-12T13:18:00.261Z,100.00
2024-03-12T13:21:17.058Z,100.00
2024-03-12T13:24:32.644Z,100.00
2024-03-12T13:28:07.242Z,100.00
2024-03-12T13:31:38.503Z,100.00
2024-03-12T13:35:00.378Z,100.00
2024-03-12T13:38:17.541Z,100.00
2024-03-12T13:41:38.957Z,100.00
2024-03-12T13:45:01.617Z,100.00
2024-03-12T13:48:22.438Z,100.00
2024-03-12T13:51:38.671Z,100.00
2024-03-12T13:54:59.111Z,100.00
2024-03-12T13:58:53.298Z,100.00
2024-03-12T14:02:09.719Z,100.00
2024-03-12T14:05:27.034Z,100.00
2024-03-12T14:08:43.680Z,100.00
2024-03-12T14:12:17.607Z,100.00
2024-03-12T14:16:11.385Z,100.00
2024-03-12T14:19:27.465Z,100.00
2024-03-12T14:22:45.265Z,100.00
2024-03-12T14:25:59.444Z,100.00
2024-03-12T14:29:24.472Z,100.00
2024-03-12T14:36:22.812Z,100.00
2024-03-12T14:39:46.157Z,100.00
2024-03-12T14:43:06.130Z,100.00
2024-03-12T14:46:59.447Z,100.00
2024-03-12T14:50:45.071Z,100.00
2024-03-12T14:53:59.846Z,100.00
2024-03-12T14:57:16.328Z,100.00
2024-03-12T15:00:30.988Z,100.00
2024-03-12T15:03:46.917Z,100.00
2024-03-12T15:07:01.214Z,100.00
2024-03-12T15:10:24.129Z,100.00
2024-03-12T15:13:38.754Z,100.00
2024-03-12T15:16:53.280Z,100.00
2024-03-12T15:20:16.285Z,100.00
2024-03-12T15:23:31.771Z,100.00
2024-03-12T15:26:50.095Z,100.00
2024-03-12T15:30:04.473Z,100.00
2024-03-12T15:33:19.371Z,100.00
2024-03-12T15:36:35.105Z,100.00
2024-03-12T15:39:49.410Z,100.00
2024-03-12T15:43:06.793Z,100.00
2024-03-12T15:46:21.716Z,100.00
2024-03-12T15:49:35.931Z,100.00
2024-03-12T15:52:52.335Z,100.00
2024-03-12T15:56:08.193Z,100.00
2024-03-12T15:59:22.561Z,100.00
2024-03-12T16:02:37.133Z,100.00
2024-03-12T16:05:51.664Z,100.00
2024-03-12T16:09:08.494Z,100.00
2024-03-12T16:12:22.981Z,100.00
2024-03-12T16:15:37.337Z,100.00
2024-03-12T16:18:51.784Z,100.00
2024-03-12T16:22:07.158Z,100.00
2024-03-12T16:25:23.211Z,100.00
2024-03-12T16:28:37.644Z,100.00
2024-03-12T16:31:52.455Z,100.00
2024-03-12T16:35:09.193Z,100.00
